Miami, Florida
Traffic Map
Current Weather Conditions
Miami, Florida
Clear
Clear
18°
Feels Like: 18°
Wind Chill: 18° Ceiling: Unl
Heat Index: 18° Visibility: 10mi
Dew Point: 17° Wind: 6mph
Humidity: 90% Direction: 260° (W)
Pressure: 29.73in Gusts: 0mph
Raw Report DataKMIA 240553Z 26005KT 10SM CLR 18/17 A2973 RMK AO2 SLP067 T01830167 10222 20183 53006
Traffic Incident Summary
Active as of:
Severity:
Category:
InformationThere was an issue retrieving the traffic information for this location. Please try a different location or try again shortly.
Advertisements
Track Severe Weather on mobile